Time;durP1;ratioP1;P1;durP2;ratioP2;P2;SDS_P1;SDS_P2;PMS_P1;PMS_P2;Temp;Humidity;BMP_temperature;BMP_pressure;BME280_temperature;BME280_humidity;BME280_pressure;Samples;Min_cycle;Max_cycle;Signal;HPM_P1;HPM_P2
2022/10/06 00:01:12;;;;;;;3.20;0.50;;;;;;;;;;5025042;28;20050;-86
2022/10/06 00:03:40;;;;;;;1.40;0.77;;;;;;;;;;5010165;28;20054;-88
2022/10/06 00:06:09;;;;;;;0.30;0.30;;;;;;;;;;5008768;28;20057;-85
2022/10/06 00:08:38;;;;;;;0.50;0.40;;;;;;;;;;5020024;28;20045;-84
2022/10/06 00:11:07;;;;;;;2.17;0.50;;;;;;;;;;5013313;28;20062;-86
2022/10/06 00:13:36;;;;;;;0.47;0.40;;;;;;;;;;5010734;28;20383;-85
2022/10/06 00:16:09;;;;;;;0.47;0.40;;;;;;;;;;5010153;28;20429;-85
2022/10/06 00:18:37;;;;;;;1.10;0.40;;;;;;;;;;5018093;28;20050;-86
2022/10/06 00:21:06;;;;;;;0.57;0.40;;;;;;;;;;5004034;28;20523;-85
2022/10/06 00:23:34;;;;;;;0.35;0.35;;;;;;;;;;5008625;28;20049;-85
2022/10/06 00:26:02;;;;;;;0.47;0.32;;;;;;;;;;5012996;28;20101;-88
2022/10/06 00:28:30;;;;;;;2.03;0.45;;;;;;;;;;5004392;28;20045;-87
2022/10/06 00:31:01;;;;;;;3.72;0.80;;;;;;;;;;5008845;28;20050;-85
2022/10/06 00:33:31;;;;;;;0.30;0.30;;;;;;;;;;5011609;28;20050;-86
2022/10/06 00:35:59;;;;;;;2.40;0.30;;;;;;;;;;5013721;28;20057;-83
2022/10/06 00:38:28;;;;;;;0.43;0.40;;;;;;;;;;5009781;28;20046;-85
2022/10/06 00:40:57;;;;;;;0.88;0.52;;;;;;;;;;5016138;28;20502;-83
2022/10/06 00:43:44;;;;;;;0.30;0.30;;;;;;;;;;5013212;28;20477;-85
2022/10/06 00:46:15;;;;;;;0.22;0.22;;;;;;;;;;5011012;28;20449;-85
2022/10/06 00:48:45;;;;;;;0.63;0.30;;;;;;;;;;5007992;28;20084;-86
2022/10/06 00:51:14;;;;;;;1.40;0.43;;;;;;;;;;5007263;28;20054;-87
2022/10/06 00:53:43;;;;;;;1.00;0.70;;;;;;;;;;5007837;28;20042;-85
2022/10/06 00:56:12;;;;;;;0.73;0.50;;;;;;;;;;5003370;28;20050;-86
2022/10/06 00:58:40;;;;;;;4.15;0.55;;;;;;;;;;5013086;28;20045;-88
2022/10/06 01:01:09;;;;;;;2.17;1.05;;;;;;;;;;5010160;28;20064;-86
2022/10/06 01:03:39;;;;;;;0.85;0.40;;;;;;;;;;5005694;28;20141;-87
2022/10/06 01:06:09;;;;;;;0.20;0.20;;;;;;;;;;5012267;28;20061;-85
2022/10/06 01:08:38;;;;;;;0.80;0.73;;;;;;;;;;5011326;28;20052;-86
2022/10/06 01:11:07;;;;;;;0.22;0.20;;;;;;;;;;5009561;28;20053;-88
2022/10/06 01:13:35;;;;;;;0.57;0.57;;;;;;;;;;5013197;28;20073;-85
2022/10/06 01:16:06;;;;;;;0.35;0.28;;;;;;;;;;5009141;28;20057;-86
2022/10/06 01:18:35;;;;;;;0.30;0.30;;;;;;;;;;5008653;28;20048;-86
2022/10/06 01:21:06;;;;;;;0.30;0.30;;;;;;;;;;5003804;28;20057;-85
2022/10/06 01:23:36;;;;;;;1.35;0.73;;;;;;;;;;5010329;28;20518;-85
2022/10/06 01:26:05;;;;;;;1.00;0.60;;;;;;;;;;5006836;28;20050;-86
2022/10/06 01:28:33;;;;;;;0.32;0.20;;;;;;;;;;5005725;28;20050;-87
2022/10/06 01:31:03;;;;;;;0.20;0.20;;;;;;;;;;5007201;28;20065;-85
2022/10/06 01:33:32;;;;;;;0.80;0.50;;;;;;;;;;5011112;28;20053;-89
2022/10/06 01:36:00;;;;;;;0.20;0.20;;;;;;;;;;5005169;28;20049;-85
2022/10/06 01:38:28;;;;;;;0.35;0.32;;;;;;;;;;5010443;28;20042;-86
2022/10/06 01:40:58;;;;;;;0.75;0.63;;;;;;;;;;5014351;28;20050;-85
2022/10/06 01:43:26;;;;;;;0.55;0.25;;;;;;;;;;5011182;28;20050;-86
2022/10/06 01:45:55;;;;;;;0.30;0.25;;;;;;;;;;5001125;28;20050;-86
2022/10/06 01:48:24;;;;;;;0.77;0.25;;;;;;;;;;5011145;28;20065;-88
2022/10/06 01:50:53;;;;;;;0.40;0.32;;;;;;;;;;5009081;28;20093;-85
2022/10/06 01:53:22;;;;;;;0.68;0.68;;;;;;;;;;5010053;28;20478;-85
2022/10/06 01:55:50;;;;;;;0.13;0.13;;;;;;;;;;5010506;28;20501;-86
2022/10/06 01:58:20;;;;;;;10.05;0.47;;;;;;;;;;5011726;28;20053;-86
2022/10/06 02:00:49;;;;;;;0.75;0.50;;;;;;;;;;5018175;28;20052;-88
2022/10/06 02:03:18;;;;;;;3.17;0.47;;;;;;;;;;5012174;28;20502;-85
2022/10/06 02:05:46;;;;;;;0.68;0.40;;;;;;;;;;5006036;28;20054;-88
2022/10/06 02:08:14;;;;;;;0.60;0.45;;;;;;;;;;5010216;28;20418;-86
2022/10/06 02:10:43;;;;;;;0.40;0.40;;;;;;;;;;5008700;28;20050;-87
2022/10/06 02:13:11;;;;;;;0.20;0.20;;;;;;;;;;5020262;28;20050;-85
2022/10/06 02:15:41;;;;;;;0.35;0.30;;;;;;;;;;5007396;28;20164;-85
2022/10/06 02:18:09;;;;;;;1.25;0.25;;;;;;;;;;5011445;28;20104;-90
2022/10/06 02:20:39;;;;;;;0.90;0.32;;;;;;;;;;5006225;28;20052;-86
2022/10/06 02:23:07;;;;;;;0.30;0.30;;;;;;;;;;5003565;28;20050;-85
2022/10/06 02:25:35;;;;;;;0.35;0.20;;;;;;;;;;5000522;28;20057;-89
2022/10/06 02:28:03;;;;;;;0.65;0.40;;;;;;;;;;5018045;28;20052;-85
2022/10/06 02:30:32;;;;;;;0.20;0.20;;;;;;;;;;5008911;28;20445;-85
2022/10/06 02:33:02;;;;;;;0.45;0.20;;;;;;;;;;5012131;28;20060;-86
2022/10/06 02:35:30;;;;;;;0.40;0.30;;;;;;;;;;5009389;28;20047;-85
2022/10/06 02:37:58;;;;;;;0.15;0.13;;;;;;;;;;5010003;28;20052;-85
2022/10/06 02:40:27;;;;;;;0.30;0.30;;;;;;;;;;5008057;28;20054;-86
2022/10/06 02:42:55;;;;;;;0.93;0.32;;;;;;;;;;5009161;28;20406;-86
2022/10/06 02:45:23;;;;;;;0.32;0.30;;;;;;;;;;5009348;28;20406;-85
2022/10/06 02:47:52;;;;;;;3.20;0.60;;;;;;;;;;5013986;28;20049;-85
2022/10/06 02:50:22;;;;;;;0.38;0.32;;;;;;;;;;5013895;28;20049;-85
2022/10/06 02:52:50;;;;;;;2.47;0.40;;;;;;;;;;5002806;28;20042;-85
2022/10/06 02:55:18;;;;;;;0.30;0.30;;;;;;;;;;5005272;28;20046;-85
2022/10/06 02:57:47;;;;;;;0.85;0.30;;;;;;;;;;5010221;28;20052;-86
2022/10/06 03:00:15;;;;;;;1.23;0.65;;;;;;;;;;5014071;28;20061;-86
2022/10/06 03:02:44;;;;;;;1.17;0.38;;;;;;;;;;5003400;28;20042;-89
2022/10/06 03:05:12;;;;;;;0.30;0.30;;;;;;;;;;5002911;28;20561;-85
2022/10/06 03:07:42;;;;;;;0.40;0.40;;;;;;;;;;5004563;28;20506;-94
2022/10/06 03:10:10;;;;;;;1.27;0.70;;;;;;;;;;5005295;28;20046;-88
2022/10/06 03:12:38;;;;;;;0.80;0.32;;;;;;;;;;5004398;28;20053;-86
2022/10/06 03:15:07;;;;;;;0.50;0.30;;;;;;;;;;5012684;28;20528;-86
2022/10/06 03:17:35;;;;;;;0.40;0.40;;;;;;;;;;5008062;28;20438;-86
2022/10/06 03:20:04;;;;;;;0.35;0.32;;;;;;;;;;5006953;28;20509;-85
2022/10/06 03:22:32;;;;;;;1.67;0.80;;;;;;;;;;5014048;28;20050;-85
2022/10/06 03:25:02;;;;;;;1.38;0.45;;;;;;;;;;5013500;28;20038;-85
2022/10/06 03:27:31;;;;;;;0.40;0.20;;;;;;;;;;5013919;28;20068;-85
2022/10/06 03:29:59;;;;;;;0.20;0.20;;;;;;;;;;5013944;28;20046;-85
2022/10/06 03:32:27;;;;;;;1.30;0.60;;;;;;;;;;5013121;28;20049;-85
2022/10/06 03:34:56;;;;;;;0.20;0.20;;;;;;;;;;5017554;28;20060;-86
2022/10/06 03:37:24;;;;;;;0.15;0.15;;;;;;;;;;5006318;28;20221;-85
2022/10/06 03:39:53;;;;;;;0.20;0.20;;;;;;;;;;5012625;28;20053;-85
2022/10/06 03:42:22;;;;;;;0.38;0.30;;;;;;;;;;5014291;28;20402;-86
2022/10/06 03:44:51;;;;;;;0.15;0.15;;;;;;;;;;5012204;28;20053;-86
2022/10/06 03:47:19;;;;;;;3.20;0.52;;;;;;;;;;5012214;28;20054;-85
2022/10/06 03:49:47;;;;;;;0.22;0.22;;;;;;;;;;5013544;28;20046;-88
2022/10/06 03:52:16;;;;;;;0.60;0.40;;;;;;;;;;5010137;28;20042;-87
2022/10/06 03:54:46;;;;;;;0.30;0.30;;;;;;;;;;5010124;28;20052;-87
2022/10/06 03:57:14;;;;;;;1.00;0.85;;;;;;;;;;5009164;28;20461;-85
2022/10/06 03:59:44;;;;;;;0.43;0.40;;;;;;;;;;5020355;28;20041;-84
2022/10/06 04:02:12;;;;;;;1.10;0.30;;;;;;;;;;5010278;28;20049;-86
2022/10/06 04:04:41;;;;;;;1.52;0.40;;;;;;;;;;5016065;28;20556;-85
2022/10/06 04:07:09;;;;;;;0.10;0.10;;;;;;;;;;5007383;28;20053;-88
2022/10/06 04:09:38;;;;;;;0.90;0.57;;;;;;;;;;5010908;28;20402;-85
2022/10/06 04:12:06;;;;;;;0.25;0.25;;;;;;;;;;5007611;28;20050;-85
2022/10/06 04:14:34;;;;;;;1.15;0.28;;;;;;;;;;5004052;28;20049;-87
2022/10/06 04:17:04;;;;;;;0.90;0.40;;;;;;;;;;5010306;28;20054;-85
2022/10/06 04:19:32;;;;;;;0.90;0.60;;;;;;;;;;5010978;28;20041;-90
2022/10/06 04:22:01;;;;;;;1.13;0.40;;;;;;;;;;5018567;28;20159;-85
2022/10/06 04:24:29;;;;;;;0.52;0.28;;;;;;;;;;5011107;28;20137;-86
2022/10/06 04:27:26;;;;;;;0.25;0.15;;;;;;;;;;5007891;28;20053;-86
2022/10/06 04:29:46;;;;;;;0.10;0.10;;;;;;;;;;5019417;28;20046;-89
2022/10/06 04:32:15;;;;;;;1.73;0.63;;;;;;;;;;5006016;28;20056;-85
2022/10/06 04:34:44;;;;;;;0.15;0.13;;;;;;;;;;5012600;28;20050;-85
2022/10/06 04:37:12;;;;;;;9.82;1.13;;;;;;;;;;5012862;28;20063;-86
2022/10/06 04:39:40;;;;;;;0.98;0.47;;;;;;;;;;5014268;28;20045;-87
2022/10/06 04:42:08;;;;;;;0.20;0.20;;;;;;;;;;5009577;28;20046;-85
2022/10/06 04:44:37;;;;;;;0.30;0.30;;;;;;;;;;5007208;28;20050;-86
2022/10/06 04:47:05;;;;;;;0.30;0.30;;;;;;;;;;5009700;28;20073;-84
2022/10/06 04:49:35;;;;;;;0.13;0.13;;;;;;;;;;5011858;28;20046;-86
2022/10/06 04:52:04;;;;;;;0.75;0.50;;;;;;;;;;5006748;28;20060;-86
2022/10/06 04:54:32;;;;;;;0.93;0.47;;;;;;;;;;5011723;28;20049;-86
2022/10/06 04:57:01;;;;;;;0.73;0.40;;;;;;;;;;5004615;28;20042;-85
2022/10/06 05:02:12;;;;;;;0.22;0.22;;;;;;;;;;5006501;28;20490;-86
2022/10/06 05:04:42;;;;;;;0.63;0.50;;;;;;;;;;5007472;28;20042;-91
2022/10/06 05:07:10;;;;;;;0.43;0.40;;;;;;;;;;5010952;28;20050;-86
2022/10/06 05:09:38;;;;;;;1.02;0.30;;;;;;;;;;5009838;28;20050;-86
2022/10/06 05:12:09;;;;;;;0.30;0.30;;;;;;;;;;5007017;28;20060;-89
2022/10/06 05:14:37;;;;;;;0.80;0.32;;;;;;;;;;5004724;28;20767;-87
2022/10/06 05:17:05;;;;;;;0.40;0.35;;;;;;;;;;5012136;28;20087;-90
2022/10/06 05:19:33;;;;;;;0.20;0.20;;;;;;;;;;5005582;28;20050;-95
2022/10/06 05:22:03;;;;;;;0.38;0.30;;;;;;;;;;5010362;28;20049;-95
2022/10/06 05:24:32;;;;;;;1.27;0.73;;;;;;;;;;5017753;28;20046;-96
2022/10/06 05:27:02;;;;;;;0.52;0.40;;;;;;;;;;5007856;28;20041;-94
2022/10/06 05:29:31;;;;;;;0.30;0.30;;;;;;;;;;5003438;28;20046;-90
2022/10/06 05:31:59;;;;;;;0.43;0.43;;;;;;;;;;4998412;28;20054;-90
2022/10/06 05:34:27;;;;;;;0.30;0.20;;;;;;;;;;5004633;28;20048;-90
2022/10/06 05:36:56;;;;;;;2.72;0.75;;;;;;;;;;5006973;28;20449;-89
2022/10/06 05:39:25;;;;;;;0.38;0.32;;;;;;;;;;5004597;28;20084;-89
2022/10/06 05:41:54;;;;;;;2.40;0.40;;;;;;;;;;5009844;28;20103;-89
2022/10/06 05:44:22;;;;;;;0.63;0.28;;;;;;;;;;5004932;28;20413;-89
2022/10/06 05:46:51;;;;;;;0.20;0.20;;;;;;;;;;5003843;28;21128;-89
2022/10/06 05:49:19;;;;;;;0.75;0.43;;;;;;;;;;5005626;28;20045;-89
2022/10/06 05:51:47;;;;;;;0.93;0.47;;;;;;;;;;5006427;28;20140;-89
2022/10/06 05:54:16;;;;;;;1.75;0.63;;;;;;;;;;5012423;28;20104;-90
2022/10/06 05:56:46;;;;;;;0.28;0.28;;;;;;;;;;5010246;28;20577;-89
2022/10/06 05:59:14;;;;;;;0.30;0.30;;;;;;;;;;5009954;28;20072;-89
2022/10/06 06:01:43;;;;;;;0.73;0.73;;;;;;;;;;5005833;28;20509;-89
2022/10/06 06:04:12;;;;;;;0.30;0.30;;;;;;;;;;5007286;28;20134;-89
2022/10/06 06:06:41;;;;;;;2.03;0.60;;;;;;;;;;5006104;28;20042;-89
2022/10/06 06:09:11;;;;;;;0.30;0.30;;;;;;;;;;5013440;28;22021;-89
2022/10/06 06:11:40;;;;;;;0.20;0.20;;;;;;;;;;5011005;28;20185;-89
2022/10/06 06:14:11;;;;;;;0.50;0.40;;;;;;;;;;5008610;28;20065;-89
2022/10/06 06:16:39;;;;;;;1.75;0.30;;;;;;;;;;5003904;28;20482;-89
2022/10/06 06:19:08;;;;;;;0.30;0.30;;;;;;;;;;5015729;28;20049;-89
2022/10/06 06:21:37;;;;;;;1.23;0.65;;;;;;;;;;5028241;28;20065;-90
2022/10/06 06:24:05;;;;;;;0.40;0.40;;;;;;;;;;5008804;28;20649;-89
2022/10/06 06:26:35;;;;;;;0.35;0.35;;;;;;;;;;5008775;28;20059;-89
2022/10/06 06:29:05;;;;;;;0.28;0.28;;;;;;;;;;5019527;28;20184;-89
2022/10/06 06:31:35;;;;;;;0.77;0.32;;;;;;;;;;5023104;28;20053;-88
2022/10/06 06:34:05;;;;;;;0.32;0.28;;;;;;;;;;5013596;28;20406;-88
2022/10/06 06:36:35;;;;;;;0.32;0.32;;;;;;;;;;5007139;28;20046;-89
2022/10/06 06:39:05;;;;;;;0.50;0.50;;;;;;;;;;5004943;28;20046;-88
2022/10/06 06:41:34;;;;;;;0.30;0.30;;;;;;;;;;5008144;28;20042;-89
2022/10/06 06:44:03;;;;;;;4.15;0.60;;;;;;;;;;5007821;28;20046;-87
2022/10/06 06:46:31;;;;;;;2.47;0.52;;;;;;;;;;5009017;28;20399;-89
2022/10/06 06:49:03;;;;;;;0.20;0.20;;;;;;;;;;5009294;28;20050;-89
2022/10/06 06:51:33;;;;;;;0.85;0.43;;;;;;;;;;5011981;28;20463;-89
2022/10/06 06:54:02;;;;;;;0.22;0.17;;;;;;;;;;5012179;28;20150;-89
2022/10/06 06:56:33;;;;;;;1.77;0.45;;;;;;;;;;5011494;28;20049;-89
2022/10/06 06:59:05;;;;;;;0.38;0.38;;;;;;;;;;5010626;28;20558;-91
2022/10/06 07:01:33;;;;;;;0.88;0.80;;;;;;;;;;5009798;28;20042;-89
2022/10/06 07:04:03;;;;;;;1.08;0.60;;;;;;;;;;5013066;28;20049;-89
2022/10/06 07:06:32;;;;;;;0.60;0.60;;;;;;;;;;5013990;28;20049;-89
2022/10/06 07:09:00;;;;;;;0.77;0.28;;;;;;;;;;5015833;28;20064;-89
2022/10/06 07:11:30;;;;;;;0.88;0.40;;;;;;;;;;5005458;28;20077;-88
2022/10/06 07:14:00;;;;;;;0.88;0.45;;;;;;;;;;5003314;28;20050;-89
2022/10/06 07:25:10;;;;;;;1.67;0.77;;;;;;;;;;5008947;28;20453;-89
2022/10/06 07:27:41;;;;;;;1.70;0.68;;;;;;;;;;5015505;28;20049;-89
2022/10/06 07:30:10;;;;;;;1.60;1.30;;;;;;;;;;5008473;28;20081;-89
2022/10/06 07:32:39;;;;;;;0.50;0.50;;;;;;;;;;5016071;28;20416;-89
2022/10/06 07:35:09;;;;;;;0.55;0.40;;;;;;;;;;5010335;28;20398;-89
2022/10/06 07:37:37;;;;;;;1.27;0.57;;;;;;;;;;5015052;28;20046;-89
2022/10/06 07:40:07;;;;;;;4.35;1.00;;;;;;;;;;5012073;28;20053;-89
2022/10/06 07:42:47;;;;;;;0.43;0.30;;;;;;;;;;5022027;28;20077;-89
2022/10/06 07:48:03;;;;;;;0.65;0.30;;;;;;;;;;5012828;28;20494;-89
2022/10/06 07:50:33;;;;;;;0.88;0.40;;;;;;;;;;5017139;28;20048;-89
2022/10/06 07:53:03;;;;;;;1.17;0.47;;;;;;;;;;5014178;28;20050;-89
2022/10/06 07:55:32;;;;;;;0.88;0.40;;;;;;;;;;5026096;28;20050;-90
2022/10/06 07:58:00;;;;;;;0.50;0.50;;;;;;;;;;5014450;28;20045;-89
2022/10/06 08:00:29;;;;;;;0.40;0.35;;;;;;;;;;5016505;28;20134;-90
2022/10/06 08:02:57;;;;;;;1.30;0.60;;;;;;;;;;5006893;28;20137;-90
2022/10/06 08:05:26;;;;;;;2.70;1.23;;;;;;;;;;5012514;28;20045;-89
2022/10/06 08:07:57;;;;;;;0.75;0.43;;;;;;;;;;5017739;28;20054;-88
2022/10/06 08:10:26;;;;;;;0.45;0.38;;;;;;;;;;5011660;28;20045;-89
2022/10/06 08:12:54;;;;;;;1.15;0.70;;;;;;;;;;5009816;28;20410;-90
2022/10/06 08:15:23;;;;;;;1.20;0.63;;;;;;;;;;5019074;28;20088;-90
2022/10/06 08:17:52;;;;;;;6.82;1.02;;;;;;;;;;5027406;28;20136;-89
2022/10/06 08:20:23;;;;;;;0.55;0.50;;;;;;;;;;5007044;28;20060;-91
2022/10/06 08:22:51;;;;;;;2.05;1.02;;;;;;;;;;5019064;28;20045;-90
2022/10/06 08:25:21;;;;;;;6.97;1.13;;;;;;;;;;5016088;28;20046;-90
2022/10/06 08:27:49;;;;;;;2.03;1.00;;;;;;;;;;5010015;28;20054;-90
2022/10/06 08:30:26;;;;;;;1.08;0.98;;;;;;;;;;5011918;28;20076;-90
2022/10/06 08:32:54;;;;;;;1.70;0.93;;;;;;;;;;5020548;28;20517;-90
2022/10/06 08:35:23;;;;;;;2.95;1.13;;;;;;;;;;5020160;28;20132;-91
2022/10/06 08:37:52;;;;;;;4.95;0.98;;;;;;;;;;5024668;28;20059;-90
2022/10/06 08:40:22;;;;;;;3.05;1.10;;;;;;;;;;5010279;28;20064;-91
2022/10/06 08:42:51;;;;;;;1.83;0.98;;;;;;;;;;5014881;28;20046;-90
2022/10/06 08:45:23;;;;;;;1.08;0.70;;;;;;;;;;5017075;28;20089;-90
2022/10/06 08:47:55;;;;;;;1.77;0.70;;;;;;;;;;5017587;28;20045;-90
2022/10/06 08:50:26;;;;;;;0.60;0.43;;;;;;;;;;5010773;28;20512;-90
2022/10/06 08:52:57;;;;;;;1.40;0.65;;;;;;;;;;5011158;28;20099;-91
2022/10/06 08:55:35;;;;;;;1.23;0.60;;;;;;;;;;5011836;28;20052;-91
2022/10/06 08:58:19;;;;;;;0.38;0.32;;;;;;;;;;5013389;28;20133;-91
2022/10/06 09:00:47;;;;;;;0.80;0.50;;;;;;;;;;5004798;28;20042;-91
2022/10/06 09:03:21;;;;;;;1.00;0.40;;;;;;;;;;5013737;28;20065;-91
2022/10/06 09:05:51;;;;;;;3.08;0.43;;;;;;;;;;5012981;28;20053;-91
2022/10/06 09:08:30;;;;;;;0.65;0.40;;;;;;;;;;5013768;28;20065;-91
2022/10/06 09:11:03;;;;;;;16.92;0.80;;;;;;;;;;5006349;28;20510;-91
2022/10/06 09:13:33;;;;;;;3.30;0.50;;;;;;;;;;5010687;28;20050;-91
2022/10/06 09:16:06;;;;;;;0.55;0.55;;;;;;;;;;5014323;28;20050;-91
2022/10/06 09:18:38;;;;;;;1.27;1.00;;;;;;;;;;5010950;28;20065;-91
2022/10/06 09:21:29;;;;;;;0.88;0.50;;;;;;;;;;4996288;28;20049;-91
2022/10/06 09:24:02;;;;;;;1.80;0.80;;;;;;;;;;5011122;28;20161;-91
2022/10/06 09:26:33;;;;;;;1.13;0.57;;;;;;;;;;5006801;28;20414;-91
2022/10/06 09:29:02;;;;;;;1.38;0.90;;;;;;;;;;5006002;28;20129;-92
2022/10/06 09:31:31;;;;;;;1.80;0.60;;;;;;;;;;5007415;28;20088;-90
2022/10/06 09:34:03;;;;;;;2.28;0.55;;;;;;;;;;5017336;28;20053;-91
2022/10/06 09:36:32;;;;;;;2.85;0.40;;;;;;;;;;5011436;28;20053;-91
2022/10/06 09:39:01;;;;;;;0.73;0.73;;;;;;;;;;5001912;28;20042;-91
2022/10/06 09:41:30;;;;;;;1.75;0.77;;;;;;;;;;5005806;28;20050;-91
2022/10/06 09:44:02;;;;;;;0.40;0.40;;;;;;;;;;5009795;28;20053;-91
2022/10/06 09:46:32;;;;;;;1.33;0.63;;;;;;;;;;5012832;28;20050;-91
2022/10/06 09:49:09;;;;;;;0.30;0.30;;;;;;;;;;5011810;28;20137;-91
2022/10/06 09:51:37;;;;;;;1.10;0.63;;;;;;;;;;5010528;28;20503;-92
2022/10/06 09:54:13;;;;;;;1.25;0.65;;;;;;;;;;5013095;28;20465;-92
2022/10/06 09:56:42;;;;;;;2.95;1.10;;;;;;;;;;5013120;28;20125;-91
2022/10/06 09:59:20;;;;;;;1.27;0.73;;;;;;;;;;5007941;28;20144;-92
2022/10/06 10:01:52;;;;;;;4.95;0.90;;;;;;;;;;5010007;28;20052;-92
2022/10/06 10:04:24;;;;;;;0.47;0.40;;;;;;;;;;5006549;28;20060;-92
2022/10/06 10:06:53;;;;;;;3.00;1.05;;;;;;;;;;5004511;28;20054;-90
2022/10/06 10:09:24;;;;;;;0.50;0.45;;;;;;;;;;5008230;28;20045;-90
2022/10/06 10:12:27;;;;;;;1.73;0.52;;;;;;;;;;5007838;28;20049;-88
2022/10/06 10:14:58;;;;;;;0.70;0.63;;;;;;;;;;5005446;28;20053;-88
2022/10/06 10:17:38;;;;;;;1.00;0.75;;;;;;;;;;5001560;28;20053;-88
2022/10/06 10:20:23;;;;;;;0.85;0.57;;;;;;;;;;5001439;28;20050;-90
2022/10/06 10:22:53;;;;;;;0.68;0.52;;;;;;;;;;5006556;28;20045;-88
2022/10/06 10:25:30;;;;;;;1.27;0.70;;;;;;;;;;5005033;28;20168;-87
2022/10/06 10:28:02;;;;;;;0.50;0.50;;;;;;;;;;4998759;28;20042;-88
2022/10/06 10:30:32;;;;;;;2.17;0.90;;;;;;;;;;5008405;28;20068;-92
2022/10/06 10:33:04;;;;;;;1.02;0.50;;;;;;;;;;5002332;28;20050;-88
2022/10/06 10:35:36;;;;;;;1.38;0.47;;;;;;;;;;5009227;28;20050;-90
2022/10/06 10:38:07;;;;;;;2.03;0.73;;;;;;;;;;5009134;28;20057;-89
2022/10/06 10:40:44;;;;;;;0.43;0.30;;;;;;;;;;4999770;28;20150;-89
2022/10/06 10:43:17;;;;;;;3.83;0.65;;;;;;;;;;5006213;28;20049;-90
2022/10/06 10:45:49;;;;;;;0.90;0.60;;;;;;;;;;4997746;28;20134;-89
2022/10/06 10:48:23;;;;;;;3.55;0.63;;;;;;;;;;5006473;28;20211;-93
2022/10/06 10:50:54;;;;;;;1.33;0.98;;;;;;;;;;5009888;28;20088;-90
2022/10/06 10:53:26;;;;;;;3.08;0.80;;;;;;;;;;5004978;28;20140;-89
2022/10/06 10:55:55;;;;;;;0.98;0.60;;;;;;;;;;4994157;28;20069;-89
2022/10/06 10:58:28;;;;;;;1.98;0.60;;;;;;;;;;5009515;28;20049;-96
2022/10/06 11:01:01;;;;;;;0.75;0.52;;;;;;;;;;5012622;28;20137;-94
2022/10/06 11:03:29;;;;;;;0.57;0.50;;;;;;;;;;5002162;28;20088;-91
2022/10/06 11:06:05;;;;;;;0.90;0.85;;;;;;;;;;5005186;28;20050;-91
2022/10/06 11:08:38;;;;;;;3.03;0.65;;;;;;;;;;5013665;28;20077;-91
2022/10/06 11:11:10;;;;;;;0.50;0.43;;;;;;;;;;5005451;28;20478;-91
2022/10/06 11:13:40;;;;;;;1.48;1.05;;;;;;;;;;5010489;28;20054;-91
2022/10/06 11:16:16;;;;;;;0.70;0.68;;;;;;;;;;5005595;28;20054;-91
2022/10/06 11:18:52;;;;;;;5.28;1.00;;;;;;;;;;4999761;28;20062;-91
2022/10/06 11:21:24;;;;;;;0.50;0.40;;;;;;;;;;5003464;28;20049;-92
2022/10/06 11:23:53;;;;;;;1.40;0.55;;;;;;;;;;5007623;28;20092;-91
2022/10/06 11:26:30;;;;;;;0.63;0.45;;;;;;;;;;5003836;28;20065;-92
2022/10/06 11:29:01;;;;;;;1.55;0.68;;;;;;;;;;5014317;28;20059;-91
2022/10/06 11:31:34;;;;;;;1.13;0.80;;;;;;;;;;5004322;28;20528;-92
2022/10/06 11:34:05;;;;;;;2.60;0.95;;;;;;;;;;5018741;28;20140;-92
2022/10/06 11:36:38;;;;;;;0.70;0.47;;;;;;;;;;5005251;28;20100;-91
2022/10/06 11:39:12;;;;;;;0.52;0.38;;;;;;;;;;5003477;28;20147;-91
2022/10/06 11:41:44;;;;;;;3.08;0.65;;;;;;;;;;5014946;28;20050;-91
2022/10/06 11:44:17;;;;;;;0.55;0.55;;;;;;;;;;5011407;28;20578;-91
2022/10/06 11:46:50;;;;;;;0.65;0.65;;;;;;;;;;5001948;28;20106;-91
2022/10/06 11:49:50;;;;;;;2.70;0.70;;;;;;;;;;5010670;28;20046;-90
2022/10/06 11:52:38;;;;;;;0.90;0.60;;;;;;;;;;5001458;28;20086;-90
2022/10/06 11:55:13;;;;;;;0.75;0.47;;;;;;;;;;5011701;28;20049;-90
2022/10/06 11:57:59;;;;;;;4.05;0.40;;;;;;;;;;4997977;28;20046;-91
2022/10/06 12:00:41;;;;;;;0.63;0.57;;;;;;;;;;5003556;28;20157;-90
2022/10/06 12:03:27;;;;;;;2.63;0.68;;;;;;;;;;5007873;28;20053;-90
2022/10/06 12:05:57;;;;;;;3.40;0.77;;;;;;;;;;4990462;28;20047;-94
2022/10/06 12:08:35;;;;;;;0.38;0.35;;;;;;;;;;5013164;28;20072;-91
2022/10/06 12:11:04;;;;;;;0.40;0.40;;;;;;;;;;5002295;28;20124;-90
2022/10/06 12:13:38;;;;;;;0.75;0.55;;;;;;;;;;5005266;28;20042;-90
2022/10/06 12:16:28;;;;;;;0.75;0.60;;;;;;;;;;5002885;28;20070;-90
2022/10/06 12:19:20;;;;;;;0.50;0.50;;;;;;;;;;5000120;28;20167;-90
2022/10/06 12:22:00;;;;;;;0.82;0.80;;;;;;;;;;5003443;28;20049;-93
2022/10/06 12:24:33;;;;;;;1.00;0.63;;;;;;;;;;5005400;28;20116;-90
2022/10/06 12:27:20;;;;;;;1.05;0.50;;;;;;;;;;5018224;28;20054;-90
2022/10/06 12:29:56;;;;;;;0.77;0.55;;;;;;;;;;4999734;28;20065;-96
2022/10/06 12:32:35;;;;;;;0.70;0.70;;;;;;;;;;5003550;28;20046;-91
2022/10/06 12:35:13;;;;;;;1.05;0.60;;;;;;;;;;5011130;28;20096;-90
2022/10/06 12:37:44;;;;;;;0.57;0.50;;;;;;;;;;5015356;28;20121;-90
2022/10/06 12:40:39;;;;;;;1.15;0.60;;;;;;;;;;5009635;28;20049;-90
2022/10/06 12:43:11;;;;;;;1.05;0.52;;;;;;;;;;5008555;28;20185;-90
2022/10/06 12:45:41;;;;;;;4.72;0.65;;;;;;;;;;5013209;28;20129;-92
2022/10/06 12:48:18;;;;;;;1.15;0.80;;;;;;;;;;5013412;28;20111;-89
2022/10/06 12:50:49;;;;;;;1.70;0.75;;;;;;;;;;5010145;28;20069;-91
2022/10/06 12:53:21;;;;;;;1.67;0.70;;;;;;;;;;5012624;28;20054;-89
2022/10/06 12:55:52;;;;;;;0.50;0.50;;;;;;;;;;5004843;28;20103;-91
2022/10/06 12:58:27;;;;;;;0.50;0.50;;;;;;;;;;5006114;28;20100;-90
2022/10/06 13:01:00;;;;;;;4.75;0.50;;;;;;;;;;5006172;28;20576;-89
2022/10/06 13:03:29;;;;;;;1.83;0.80;;;;;;;;;;5002584;28;20112;-90
2022/10/06 13:05:59;;;;;;;0.82;0.40;;;;;;;;;;5010570;28;20486;-92
2022/10/06 13:08:31;;;;;;;0.70;0.60;;;;;;;;;;5005416;28;20466;-89
2022/10/06 13:11:12;;;;;;;1.35;0.52;;;;;;;;;;5005321;28;20440;-91
2022/10/06 13:13:47;;;;;;;0.55;0.55;;;;;;;;;;5002093;28;20062;-90
2022/10/06 13:16:21;;;;;;;1.70;0.50;;;;;;;;;;5008031;28;20391;-89
2022/10/06 13:18:49;;;;;;;2.10;0.80;;;;;;;;;;5005833;28;20591;-90
2022/10/06 13:21:18;;;;;;;2.17;0.60;;;;;;;;;;4996725;28;20060;-90
2022/10/06 13:23:49;;;;;;;0.75;0.68;;;;;;;;;;5000517;28;20050;-92
2022/10/06 13:26:21;;;;;;;0.60;0.40;;;;;;;;;;4999253;28;20054;-91
2022/10/06 13:28:50;;;;;;;0.85;0.63;;;;;;;;;;5005923;28;20054;-90
2022/10/06 13:31:20;;;;;;;3.08;0.63;;;;;;;;;;5004604;28;20058;-90
2022/10/06 13:33:51;;;;;;;0.38;0.38;;;;;;;;;;5011891;28;20129;-91
2022/10/06 13:36:22;;;;;;;0.75;0.40;;;;;;;;;;5006054;28;20057;-91
2022/10/06 13:38:53;;;;;;;1.83;0.75;;;;;;;;;;5006624;28;20045;-91
2022/10/06 13:41:24;;;;;;;1.88;0.70;;;;;;;;;;4999090;28;20132;-91
2022/10/06 13:43:55;;;;;;;0.98;0.70;;;;;;;;;;5009910;28;20046;-92
2022/10/06 13:46:25;;;;;;;4.65;0.82;;;;;;;;;;5010174;28;20133;-92
2022/10/06 13:48:58;;;;;;;1.27;0.60;;;;;;;;;;5010752;28;20645;-91
2022/10/06 13:51:29;;;;;;;0.85;0.68;;;;;;;;;;5003807;28;20104;-91
2022/10/06 13:53:59;;;;;;;1.67;0.65;;;;;;;;;;5009882;28;20054;-91
2022/10/06 13:56:38;;;;;;;1.20;0.55;;;;;;;;;;5005444;28;20046;-92
2022/10/06 13:59:27;;;;;;;0.95;0.60;;;;;;;;;;5011466;28;20423;-90
2022/10/06 14:01:55;;;;;;;1.00;0.88;;;;;;;;;;5004636;28;20446;-88
2022/10/06 14:04:24;;;;;;;0.98;0.80;;;;;;;;;;5004970;28;20059;-90
2022/10/06 14:06:54;;;;;;;1.33;0.70;;;;;;;;;;5003479;28;20053;-91
2022/10/06 14:09:25;;;;;;;0.98;0.60;;;;;;;;;;5003547;28;20445;-91
2022/10/06 14:11:54;;;;;;;3.25;0.82;;;;;;;;;;5000817;28;20568;-90
2022/10/06 14:14:23;;;;;;;0.32;0.32;;;;;;;;;;4999223;28;20049;-91
2022/10/06 14:16:53;;;;;;;0.65;0.63;;;;;;;;;;5012810;28;20132;-93
2022/10/06 14:19:32;;;;;;;1.20;0.52;;;;;;;;;;5002592;28;20128;-91
2022/10/06 14:22:01;;;;;;;1.08;0.63;;;;;;;;;;5008239;28;20073;-92
2022/10/06 14:24:36;;;;;;;0.85;0.55;;;;;;;;;;5011186;28;20053;-91
2022/10/06 14:27:06;;;;;;;1.27;0.82;;;;;;;;;;5006907;28;20132;-92
2022/10/06 14:29:36;;;;;;;1.60;0.57;;;;;;;;;;5011279;28;20157;-90
2022/10/06 14:32:09;;;;;;;2.00;0.75;;;;;;;;;;4999763;28;20077;-89
2022/10/06 14:34:39;;;;;;;1.40;1.02;;;;;;;;;;5000515;28;20054;-90
2022/10/06 14:37:10;;;;;;;1.67;0.60;;;;;;;;;;5005460;28;20482;-91
2022/10/06 14:39:41;;;;;;;1.13;0.75;;;;;;;;;;5001724;28;20096;-89
2022/10/06 14:42:10;;;;;;;2.30;0.60;;;;;;;;;;5008358;28;20061;-91
2022/10/06 14:44:38;;;;;;;0.73;0.35;;;;;;;;;;5007104;28;20056;-87
2022/10/06 14:47:08;;;;;;;6.65;0.60;;;;;;;;;;5011699;28;20141;-88
2022/10/06 14:49:37;;;;;;;2.10;0.80;;;;;;;;;;5007140;28;20411;-88
2022/10/06 14:52:09;;;;;;;0.85;0.55;;;;;;;;;;5003345;28;20062;-88
2022/10/06 14:54:37;;;;;;;1.17;0.75;;;;;;;;;;5006763;28;20057;-88
2022/10/06 14:57:08;;;;;;;0.50;0.50;;;;;;;;;;5010296;28;20108;-87
2022/10/06 14:59:37;;;;;;;1.50;0.68;;;;;;;;;;5006341;28;20046;-91
2022/10/06 15:02:06;;;;;;;0.47;0.47;;;;;;;;;;5004078;28;20050;-90
2022/10/06 15:04:35;;;;;;;9.88;0.55;;;;;;;;;;5015020;28;20046;-88
2022/10/06 15:09:50;;;;;;;1.67;0.98;;;;;;;;;;5015015;28;20057;-88
2022/10/06 15:12:20;;;;;;;0.38;0.38;;;;;;;;;;5004455;28;20046;-89
2022/10/06 15:14:48;;;;;;;0.52;0.40;;;;;;;;;;5021202;28;20052;-89
2022/10/06 15:17:17;;;;;;;1.60;0.40;;;;;;;;;;5003482;28;20073;-89
2022/10/06 15:19:45;;;;;;;1.00;0.40;;;;;;;;;;4999911;28;20046;-89
2022/10/06 15:22:14;;;;;;;0.75;0.60;;;;;;;;;;5008598;28;20081;-89